Time;durP1;ratioP1;P1;durP2;ratioP2;P2;SDS_P1;SDS_P2;PMS_P1;PMS_P2;Temp;Humidity;BMP_temperature;BMP_pressure;BME280_temperature;BME280_humidity;BME280_pressure;Samples;Min_cycle;Max_cycle;Signal;HPM_P1;HPM_P2
2023/02/28 00:00:48;;;;;;;1999.90;999.90;;;0.10;99.90;;;;;;5015246;28;20049;-71
2023/02/28 00:03:14;;;;;;;1999.90;999.90;;;0.10;99.90;;;;;;5011815;28;20019;-78
2023/02/28 00:05:41;;;;;;;1999.90;999.90;;;0.00;99.90;;;;;;4995298;28;20038;-70
2023/02/28 00:08:07;;;;;;;1999.90;999.90;;;0.00;99.90;;;;;;4995571;28;20034;-78
2023/02/28 00:10:33;;;;;;;1999.90;999.90;;;-0.10;99.90;;;;;;4995433;28;20077;-71
2023/02/28 00:13:03;;;;;;;1999.90;999.90;;;-0.10;99.90;;;;;;4995341;28;20093;-70
2023/02/28 00:15:28;;;;;;;1999.90;999.90;;;-0.10;99.90;;;;;;4995274;28;20026;-70
2023/02/28 00:17:54;;;;;;;1999.90;999.90;;;-0.20;99.90;;;;;;4995343;28;20077;-78
2023/02/28 00:20:20;;;;;;;1999.90;999.90;;;-0.20;99.90;;;;;;4995578;28;20034;-78
2023/02/28 00:22:49;;;;;;;1999.90;999.90;;;-0.20;99.90;;;;;;4995009;28;20038;-71
2023/02/28 00:25:17;;;;;;;1999.90;999.90;;;-0.30;99.90;;;;;;4995147;28;20037;-70
2023/02/28 00:27:43;;;;;;;1999.90;999.90;;;-0.30;99.90;;;;;;4994974;28;20027;-70
2023/02/28 00:30:13;;;;;;;1999.90;999.90;;;-0.30;99.90;;;;;;4995231;28;20030;-79
2023/02/28 00:32:39;;;;;;;1999.90;999.90;;;-0.30;99.90;;;;;;4995025;28;20022;-79
2023/02/28 00:35:05;;;;;;;1999.90;999.90;;;-0.30;99.90;;;;;;4993506;28;20037;-70
2023/02/28 00:37:31;;;;;;;1999.90;999.90;;;-0.30;99.90;;;;;;4994802;28;20030;-70
2023/02/28 00:39:57;;;;;;;1999.90;999.90;;;-0.30;99.90;;;;;;5023030;28;20087;-70
2023/02/28 00:42:23;;;;;;;1999.90;999.90;;;-0.30;99.90;;;;;;5034486;28;20029;-79
2023/02/28 00:44:48;;;;;;;1999.90;999.90;;;-0.30;99.90;;;;;;5034326;28;20029;-79
2023/02/28 00:47:14;;;;;;;1999.90;999.90;;;-0.30;99.90;;;;;;5014087;28;20104;-70
2023/02/28 00:49:40;;;;;;;1999.90;999.90;;;-0.40;99.90;;;;;;5014242;28;20044;-71
2023/02/28 00:52:06;;;;;;;1999.90;999.90;;;-0.40;99.90;;;;;;5014679;28;20018;-71
2023/02/28 00:54:31;;;;;;;1999.90;999.90;;;-0.40;99.90;;;;;;5012852;28;20030;-71
2023/02/28 00:56:57;;;;;;;1999.90;999.90;;;-0.40;99.90;;;;;;5014065;28;20044;-79
2023/02/28 00:59:23;;;;;;;1999.90;999.90;;;-0.50;99.90;;;;;;5013715;28;20030;-78
2023/02/28 01:01:48;;;;;;;1999.90;999.90;;;-0.50;99.90;;;;;;5014182;28;20478;-70
2023/02/28 01:04:14;;;;;;;1999.90;999.90;;;-0.50;99.90;;;;;;5002927;28;20026;-70
2023/02/28 01:06:40;;;;;;;1999.90;999.90;;;-0.50;99.90;;;;;;4994211;28;20034;-70
2023/02/28 01:09:07;;;;;;;1999.90;999.90;;;-0.50;99.90;;;;;;5009398;28;20041;-79
2023/02/28 01:11:33;;;;;;;1999.90;999.90;;;-0.50;99.90;;;;;;5013641;28;20064;-78
2023/02/28 01:13:59;;;;;;;1999.90;999.90;;;-0.60;99.90;;;;;;5014294;28;20480;-70
2023/02/28 01:16:26;;;;;;;1999.90;999.90;;;-0.60;99.90;;;;;;5014110;28;20040;-71
2023/02/28 01:18:52;;;;;;;1999.90;999.90;;;-0.60;99.90;;;;;;5013646;28;20037;-71
2023/02/28 01:21:20;;;;;;;1999.90;999.90;;;-0.60;99.90;;;;;;5013571;28;20030;-77
2023/02/28 01:23:46;;;;;;;1999.90;999.90;;;-0.70;99.90;;;;;;5013526;28;20030;-78
2023/02/28 01:26:21;;;;;;;1999.90;999.90;;;-0.70;99.90;;;;;;5013506;28;20028;-70
2023/02/28 01:28:47;;;;;;;1999.90;999.90;;;-0.70;99.90;;;;;;5012936;28;20125;-70
2023/02/28 01:31:13;;;;;;;1999.90;999.90;;;-0.70;99.90;;;;;;5013539;28;20545;-70
2023/02/28 01:33:39;;;;;;;1999.90;999.90;;;-0.70;99.90;;;;;;5013506;28;20022;-70
2023/02/28 01:36:11;;;;;;;1999.90;999.90;;;-0.70;99.90;;;;;;5013475;28;20152;-78
2023/02/28 01:38:37;;;;;;;1999.90;999.90;;;-0.70;99.90;;;;;;5016569;28;20037;-78
2023/02/28 01:41:03;;;;;;;1999.90;999.90;;;-0.70;99.90;;;;;;5032294;28;20040;-70
2023/02/28 01:43:49;;;;;;;1999.90;999.90;;;-0.80;99.90;;;;;;5032910;28;20026;-70
2023/02/28 01:46:15;;;;;;;1999.90;999.90;;;-0.80;99.90;;;;;;5020127;28;20077;-70
2023/02/28 01:49:14;;;;;;;1999.90;999.90;;;-0.80;99.90;;;;;;5013108;28;20022;-78
2023/02/28 01:51:50;;;;;;;1999.90;999.90;;;-0.80;99.90;;;;;;5012771;28;20405;-78
2023/02/28 01:54:21;;;;;;;1999.90;999.90;;;-0.80;99.90;;;;;;5013452;28;20024;-71
2023/02/28 01:57:00;;;;;;;1999.90;999.90;;;-0.80;99.90;;;;;;5012795;28;20532;-71
2023/02/28 01:59:33;;;;;;;1999.90;999.90;;;-0.80;99.90;;;;;;5012924;28;20021;-71
2023/02/28 02:01:59;;;;;;;;;;;-0.90;99.90;;;;;;5013521;28;20462;-79
2023/02/28 02:04:31;;;;;;;1999.90;999.90;;;-0.90;99.90;;;;;;5000374;28;19912;-79
2023/02/28 02:06:59;;;;;;;1999.90;999.90;;;-0.90;99.90;;;;;;4993198;28;20033;-71
2023/02/28 02:09:24;;;;;;;1999.90;999.90;;;-0.90;99.90;;;;;;4993085;28;20101;-71
2023/02/28 02:11:50;;;;;;;1999.90;999.90;;;-0.90;99.90;;;;;;4993129;28;20098;-70
2023/02/28 02:14:40;;;;;;;1999.90;999.90;;;-0.90;99.90;;;;;;4993327;28;20470;-79
2023/02/28 02:17:22;;;;;;;1999.90;999.90;;;-0.90;99.90;;;;;;4992681;28;20135;-78
2023/02/28 02:20:22;;;;;;;1999.90;999.90;;;-0.90;99.90;;;;;;4993184;28;20081;-70
2023/02/28 02:23:00;;;;;;;1999.90;999.90;;;-1.00;99.90;;;;;;4993085;28;20033;-71
2023/02/28 02:25:34;;;;;;;1999.90;999.90;;;-1.00;99.90;;;;;;4992800;28;20084;-70
2023/02/28 02:28:35;;;;;;;1999.90;999.90;;;-1.00;99.90;;;;;;4992882;28;20478;-79
2023/02/28 02:31:03;;;;;;;1999.90;999.90;;;-1.10;99.90;;;;;;5013250;28;20042;-79
2023/02/28 02:33:45;;;;;;;1999.90;999.90;;;-1.10;99.90;;;;;;4992737;28;20807;-70
2023/02/28 02:36:11;;;;;;;1999.90;999.90;;;-1.00;99.90;;;;;;4993108;28;20032;-70
2023/02/28 02:39:32;;;;;;;1999.90;999.90;;;-1.00;99.90;;;;;;4998841;28;20104;-70
2023/02/28 02:42:01;;;;;;;1999.90;999.90;;;-1.00;99.90;;;;;;5031882;28;20033;-79
2023/02/28 02:44:44;;;;;;;1999.90;999.90;;;-1.00;99.90;;;;;;5032434;28;20047;-70
2023/02/28 02:47:17;;;;;;;1999.90;999.90;;;-1.00;99.90;;;;;;5044593;28;20066;-70
2023/02/28 02:49:50;;;;;;;;;;;-1.00;99.90;;;;;;5012652;28;20466;-70
2023/02/28 02:52:18;;;;;;;;;;;-1.00;99.90;;;;;;5012855;28;19906;-70
2023/02/28 02:54:47;;;;;;;1999.90;999.90;;;-1.00;99.90;;;;;;5012298;28;19906;-79
2023/02/28 02:57:19;;;;;;;1999.90;999.90;;;-1.00;99.90;;;;;;5012251;28;20021;-79
2023/02/28 02:59:45;;;;;;;1999.90;999.90;;;-1.10;99.90;;;;;;5012373;28;20041;-70
2023/02/28 03:02:14;;;;;;;1999.90;999.90;;;-1.10;99.90;;;;;;5012501;28;20029;-70
2023/02/28 03:04:48;;;;;;;1999.90;999.90;;;-1.20;99.90;;;;;;4997299;28;20378;-70
2023/02/28 03:07:14;;;;;;;1999.90;999.90;;;-1.20;99.90;;;;;;4992319;28;20514;-79
2023/02/28 03:09:39;;;;;;;1999.90;999.90;;;-1.20;99.90;;;;;;4992422;28;20057;-79
2023/02/28 03:12:11;;;;;;;1999.90;999.90;;;-1.20;99.90;;;;;;4992820;28;20402;-70
2023/02/28 03:14:43;;;;;;;1999.90;999.90;;;-1.30;99.90;;;;;;4992623;28;20493;-70
2023/02/28 03:17:28;;;;;;;1999.90;999.90;;;-1.30;99.90;;;;;;4992332;28;20031;-71
2023/02/28 03:20:35;;;;;;;1999.90;999.90;;;-1.30;99.90;;;;;;4992402;28;20022;-70
2023/02/28 03:23:24;;;;;;;1999.90;999.90;;;-1.30;99.90;;;;;;4992707;28;20030;-70
2023/02/28 03:25:53;;;;;;;1999.90;999.90;;;-1.30;99.90;;;;;;4992329;28;20026;-79
2023/02/28 03:29:23;;;;;;;1999.90;999.90;;;-1.30;99.90;;;;;;4992581;28;20031;-78
2023/02/28 03:32:03;;;;;;;1999.90;999.90;;;-1.30;99.90;;;;;;5004986;28;20038;-71
2023/02/28 03:34:33;;;;;;;1999.90;999.90;;;-1.30;99.90;;;;;;5013699;28;20056;-70
2023/02/28 03:37:07;;;;;;;1999.90;999.90;;;-1.40;99.90;;;;;;5013313;28;20030;-70
2023/02/28 03:39:53;;;;;;;1999.90;999.90;;;-1.40;99.90;;;;;;5013028;28;20034;-70
2023/02/28 03:42:22;;;;;;;1999.90;999.90;;;-1.40;99.90;;;;;;5013643;28;20133;-78
2023/02/28 03:44:54;;;;;;;1999.90;999.90;;;-1.40;99.90;;;;;;5013236;28;20022;-70
2023/02/28 03:47:25;;;;;;;1999.90;999.90;;;-1.40;99.90;;;;;;5012697;28;20111;-70
2023/02/28 03:50:23;;;;;;;1999.90;999.90;;;-1.40;99.90;;;;;;5013370;28;20022;-79
2023/02/28 03:53:00;;;;;;;1999.90;999.90;;;-1.40;99.90;;;;;;5012519;28;20038;-79
2023/02/28 03:55:30;;;;;;;1999.90;999.90;;;-1.40;99.90;;;;;;5012873;28;20105;-79
2023/02/28 03:58:07;;;;;;;1999.90;999.90;;;-1.50;99.90;;;;;;5013095;28;20040;-70
2023/02/28 04:00:38;;;;;;;1999.90;999.90;;;-1.50;99.90;;;;;;5013344;28;20489;-70
2023/02/28 04:03:05;;;;;;;1999.90;999.90;;;-1.50;99.90;;;;;;5012474;28;20044;-78
2023/02/28 04:05:31;;;;;;;1999.90;999.90;;;-1.50;99.90;;;;;;5002446;28;20613;-79
2023/02/28 04:08:07;;;;;;;1999.90;999.90;;;-1.50;99.90;;;;;;4995418;28;20049;-79
2023/02/28 04:10:33;;;;;;;1999.90;999.90;;;-1.60;99.90;;;;;;4995632;28;20018;-70
2023/02/28 04:12:58;;;;;;;1999.90;999.90;;;-1.60;99.90;;;;;;4995474;28;20022;-71
2023/02/28 04:15:24;;;;;;;1999.90;999.90;;;-1.60;99.90;;;;;;4995203;28;20489;-79
2023/02/28 04:17:50;;;;;;;1999.90;999.90;;;-1.60;99.90;;;;;;5026350;28;20035;-78
2023/02/28 04:20:16;;;;;;;1999.90;999.90;;;-1.60;99.90;;;;;;4995312;28;20098;-79
2023/02/28 04:22:41;;;;;;;1999.90;999.90;;;-1.60;99.90;;;;;;4995277;28;20030;-71
2023/02/28 04:25:07;;;;;;;1999.90;999.90;;;-1.60;99.90;;;;;;4995192;28;20030;-71
2023/02/28 04:27:33;;;;;;;1999.90;999.90;;;-1.60;99.90;;;;;;4995009;28;20072;-71
2023/02/28 04:29:59;;;;;;;1999.90;999.90;;;-1.70;99.90;;;;;;4995000;28;20062;-78
2023/02/28 04:32:25;;;;;;;1999.90;999.90;;;-1.60;99.90;;;;;;4994789;28;20050;-71
2023/02/28 04:34:50;;;;;;;1999.90;999.90;;;-1.60;99.90;;;;;;4995014;28;20497;-78
2023/02/28 04:37:16;;;;;;;1999.90;999.90;;;-1.70;99.90;;;;;;4994649;28;20375;-70
2023/02/28 04:39:42;;;;;;;1999.90;999.90;;;-1.70;99.90;;;;;;5018189;28;20037;-70
2023/02/28 04:42:07;;;;;;;1999.90;999.90;;;-1.70;99.90;;;;;;5034474;28;20033;-78
2023/02/28 04:44:33;;;;;;;1999.90;999.90;;;-1.70;99.90;;;;;;5034370;28;20076;-78
2023/02/28 04:46:59;;;;;;;1999.90;999.90;;;-1.70;99.90;;;;;;5016338;28;20501;-78
2023/02/28 04:49:24;;;;;;;1999.90;999.90;;;-1.70;99.90;;;;;;5012779;28;20477;-78
2023/02/28 04:51:50;;;;;;;1999.90;999.90;;;-1.80;99.90;;;;;;5014291;28;20030;-71
2023/02/28 04:54:17;;;;;;;1999.90;999.90;;;-1.80;99.90;;;;;;5014262;28;20029;-70
2023/02/28 04:56:43;;;;;;;1999.90;999.90;;;-1.80;99.90;;;;;;5014508;28;20029;-78
2023/02/28 04:59:08;;;;;;;1999.90;999.90;;;-1.80;99.90;;;;;;5013866;28;20031;-77
2023/02/28 05:01:36;;;;;;;1999.90;999.90;;;-1.80;99.90;;;;;;5014058;28;20033;-79
2023/02/28 05:04:04;;;;;;;1999.90;999.90;;;-1.80;99.90;;;;;;5004545;28;20038;-78
2023/02/28 05:06:32;;;;;;;1999.90;999.90;;;-1.80;99.90;;;;;;4994547;28;20037;-70
2023/02/28 05:08:58;;;;;;;1999.90;999.90;;;-1.80;99.90;;;;;;4994040;28;20438;-78
2023/02/28 05:11:26;;;;;;;1999.90;999.90;;;-1.90;99.90;;;;;;4994201;28;20125;-71
2023/02/28 05:13:53;;;;;;;1999.90;999.90;;;-1.90;99.90;;;;;;4994272;28;20033;-79
2023/02/28 05:16:19;;;;;;;1999.90;999.90;;;-1.90;99.90;;;;;;5012861;28;20053;-71
2023/02/28 05:18:46;;;;;;;1999.90;999.90;;;-1.90;99.90;;;;;;5013779;28;20396;-70
2023/02/28 05:21:39;;;;;;;1999.90;999.90;;;-1.90;99.90;;;;;;5013621;28;20470;-78
2023/02/28 05:24:08;;;;;;;1999.90;999.90;;;-1.90;99.90;;;;;;5013945;28;20032;-70
2023/02/28 05:26:36;;;;;;;1999.90;999.90;;;-1.90;99.90;;;;;;5013725;28;20049;-70
2023/02/28 05:29:02;;;;;;;1999.90;999.90;;;-1.90;99.90;;;;;;5012318;28;20400;-70
2023/02/28 05:31:27;;;;;;;1999.90;999.90;;;-1.90;99.90;;;;;;5013412;28;20026;-70
2023/02/28 05:33:53;;;;;;;1999.90;999.90;;;-1.90;99.90;;;;;;5013495;28;20022;-70
2023/02/28 05:36:21;;;;;;;1999.90;999.90;;;-1.90;99.90;;;;;;5012827;28;20022;-78
2023/02/28 05:38:51;;;;;;;1999.90;999.90;;;-1.90;99.90;;;;;;5017549;28;20030;-78
2023/02/28 05:41:19;;;;;;;1999.90;999.90;;;-1.90;99.90;;;;;;5033006;28;20022;-78
2023/02/28 05:43:45;;;;;;;1999.90;999.90;;;-1.90;99.90;;;;;;5033012;28;20036;-71
2023/02/28 05:46:12;;;;;;;1999.90;999.90;;;-1.90;99.90;;;;;;5022122;28;20050;-70
2023/02/28 05:48:39;;;;;;;1999.90;999.90;;;-2.00;99.90;;;;;;5013174;28;20013;-71
2023/02/28 05:51:05;;;;;;;1999.90;999.90;;;-1.90;99.90;;;;;;5011234;28;20450;-78
2023/02/28 05:53:32;;;;;;;1999.90;999.90;;;-1.90;99.90;;;;;;5013494;28;20080;-77
2023/02/28 05:55:58;;;;;;;1999.90;999.90;;;-1.90;99.90;;;;;;5013870;28;20366;-70
2023/02/28 05:58:30;;;;;;;1999.90;999.90;;;-1.90;99.90;;;;;;5013101;28;20037;-70
2023/02/28 06:00:59;;;;;;;1999.90;999.90;;;-1.90;99.90;;;;;;5012999;28;20101;-78
2023/02/28 06:03:25;;;;;;;1999.90;999.90;;;-1.90;99.90;;;;;;5008073;28;20045;-77
2023/02/28 06:05:51;;;;;;;1999.90;999.90;;;-1.90;99.90;;;;;;4993146;28;20057;-70
2023/02/28 06:08:18;;;;;;;1999.90;999.90;;;-1.90;99.90;;;;;;4993534;28;20456;-70
2023/02/28 06:10:44;;;;;;;1999.90;999.90;;;-1.90;99.90;;;;;;4993589;28;20026;-70
2023/02/28 06:13:11;;;;;;;1999.90;999.90;;;-1.90;99.90;;;;;;4992997;28;20122;-70
2023/02/28 06:15:37;;;;;;;1999.90;999.90;;;-1.90;99.90;;;;;;4993355;28;20523;-77
2023/02/28 06:18:04;;;;;;;1999.90;999.90;;;-1.90;99.90;;;;;;4993272;28;20393;-77
2023/02/28 06:20:29;;;;;;;1999.90;999.90;;;-1.90;99.90;;;;;;4993182;28;20026;-71
2023/02/28 06:22:58;;;;;;;1999.90;999.90;;;-1.90;99.90;;;;;;4992933;28;20081;-70
2023/02/28 06:25:25;;;;;;;1999.90;999.90;;;-1.90;99.90;;;;;;4992408;28;20061;-76
2023/02/28 06:27:51;;;;;;;1999.90;999.90;;;-1.90;99.90;;;;;;5009672;28;20033;-78
2023/02/28 06:30:16;;;;;;;1999.90;999.90;;;-1.90;99.90;;;;;;5012376;28;20052;-70
2023/02/28 06:32:42;;;;;;;1999.90;999.90;;;-1.90;99.90;;;;;;5012108;28;20026;-78
2023/02/28 06:35:08;;;;;;;1999.90;999.90;;;-1.90;99.90;;;;;;5010684;28;20026;-70
2023/02/28 06:37:34;;;;;;;1999.90;999.90;;;-1.90;99.90;;;;;;4992195;28;20026;-70
2023/02/28 06:39:59;;;;;;;1999.90;999.90;;;-1.90;99.90;;;;;;5025474;28;20087;-77
2023/02/28 06:42:28;;;;;;;1999.90;999.90;;;-1.90;99.90;;;;;;4997823;28;20120;-70
2023/02/28 06:44:55;;;;;;;1999.90;999.90;;;-1.90;99.90;;;;;;5002132;28;20083;-77
2023/02/28 06:47:21;;;;;;;1999.90;999.90;;;-1.90;99.90;;;;;;5021290;28;20501;-77
2023/02/28 06:49:47;;;;;;;1999.90;999.90;;;-1.90;99.90;;;;;;5011903;28;20030;-70
2023/02/28 06:52:14;;;;;;;1999.90;999.90;;;-1.90;99.90;;;;;;5011537;28;20400;-79
2023/02/28 06:54:39;;;;;;;1999.90;999.90;;;-1.80;99.90;;;;;;5021080;28;20515;-79
2023/02/28 06:57:05;;;;;;;1999.90;999.90;;;-1.80;99.90;;;;;;5015466;28;20057;-79
2023/02/28 06:59:30;;;;;;;1999.90;999.90;;;-1.80;99.90;;;;;;5010853;28;20033;-75
2023/02/28 07:01:56;;;;;;;1999.90;999.90;;;-1.80;99.90;;;;;;5007330;28;20417;-71
2023/02/28 07:04:22;;;;;;;1999.90;999.90;;;-1.80;99.90;;;;;;5002073;28;20034;-78
2023/02/28 07:06:48;;;;;;;1999.90;999.90;;;-1.70;99.90;;;;;;5011361;28;20088;-77
2023/02/28 07:09:13;;;;;;;1999.90;999.90;;;-1.70;99.90;;;;;;5013966;28;20045;-78
2023/02/28 07:11:40;;;;;;;1999.90;999.90;;;-1.70;99.90;;;;;;5030668;28;20029;-78
2023/02/28 07:14:06;;;;;;;1999.90;999.90;;;-1.60;99.90;;;;;;4995553;28;20109;-75
2023/02/28 07:16:33;;;;;;;1999.90;999.90;;;-1.60;99.90;;;;;;5010957;28;20041;-71
2023/02/28 07:18:58;;;;;;;1999.90;999.90;;;-1.50;99.90;;;;;;5013542;28;20456;-78
2023/02/28 07:21:24;;;;;;;1999.90;999.90;;;-1.50;99.90;;;;;;5010284;28;20030;-70
2023/02/28 07:23:50;;;;;;;1999.90;999.90;;;-1.40;99.90;;;;;;5009250;28;20041;-78
2023/02/28 07:26:18;;;;;;;1999.90;999.90;;;-1.40;99.90;;;;;;5013927;28;20029;-70
2023/02/28 07:28:45;;;;;;;1999.90;999.90;;;-1.30;99.90;;;;;;5013322;28;20038;-70
2023/02/28 07:31:13;;;;;;;1999.90;999.90;;;-1.30;99.90;;;;;;5044472;28;20107;-70
2023/02/28 07:33:39;;;;;;;1999.90;999.90;;;-1.20;99.90;;;;;;5013300;28;20030;-78
2023/02/28 07:36:08;;;;;;;1999.90;999.90;;;-1.20;99.90;;;;;;5022584;28;20029;-70
2023/02/28 07:38:37;;;;;;;1999.90;999.90;;;-1.20;99.90;;;;;;5030960;28;20117;-70
2023/02/28 07:41:04;;;;;;;1999.90;999.90;;;-1.20;99.90;;;;;;5011085;28;20493;-70
2023/02/28 07:43:33;;;;;;;1999.90;999.90;;;-1.10;99.90;;;;;;5012489;28;20098;-78
2023/02/28 07:46:04;;;;;;;1999.90;999.90;;;-1.00;99.90;;;;;;5006503;28;20513;-77
2023/02/28 07:48:30;;;;;;;1999.90;999.90;;;-1.00;99.90;;;;;;5017193;28;20025;-70
2023/02/28 07:50:56;;;;;;;1999.90;999.90;;;-0.90;99.90;;;;;;5010741;28;20485;-78
2023/02/28 07:53:22;;;;;;;1999.90;999.90;;;-0.90;99.90;;;;;;5012211;28;20092;-71
2023/02/28 07:55:48;;;;;;;1999.90;999.90;;;-0.80;99.90;;;;;;5012334;28;20112;-78
2023/02/28 07:58:13;;;;;;;1999.90;999.90;;;-0.60;99.90;;;;;;5006764;28;20369;-78
2023/02/28 08:00:39;;;;;;;1999.90;999.90;;;-0.30;99.90;;;;;;5007395;28;20049;-70
2023/02/28 08:03:04;;;;;;;1999.90;999.90;;;1.30;99.90;;;;;;5001554;28;20529;-77
2023/02/28 08:05:30;;;;;;;1999.90;999.90;;;3.30;99.90;;;;;;5004380;28;20029;-70
2023/02/28 08:07:56;;;;;;;1999.90;999.90;;;4.70;99.90;;;;;;5007038;28;20029;-70
2023/02/28 08:10:23;;;;;;;1999.90;999.90;;;4.30;99.90;;;;;;5002253;28;20045;-70
2023/02/28 08:12:49;;;;;;;1999.90;999.90;;;3.00;99.90;;;;;;5011026;28;20033;-77
2023/02/28 08:15:15;;;;;;;1999.90;999.90;;;3.80;99.90;;;;;;5006974;28;20030;-75
2023/02/28 08:17:40;;;;;;;1999.90;999.90;;;4.10;99.90;;;;;;5014158;28;20104;-70
2023/02/28 08:20:07;;;;;;;1999.90;999.90;;;2.90;99.90;;;;;;5015893;28;20025;-77
2023/02/28 08:22:32;;;;;;;1999.90;999.90;;;2.20;99.90;;;;;;5015679;28;20046;-77
2023/02/28 08:24:58;;;;;;;1999.90;999.90;;;2.00;99.90;;;;;;5007189;28;20045;-70
2023/02/28 08:27:24;;;;;;;1999.90;999.90;;;1.80;99.90;;;;;;5009020;28;20030;-70
2023/02/28 08:29:49;;;;;;;1999.90;999.90;;;1.60;99.90;;;;;;5004810;28;20401;-69
2023/02/28 08:32:15;;;;;;;1999.90;999.90;;;1.70;99.90;;;;;;5012655;28;20386;-70
2023/02/28 08:34:40;;;;;;;1999.90;999.90;;;1.90;99.90;;;;;;5010771;28;20045;-81
2023/02/28 08:37:06;;;;;;;1999.90;999.90;;;2.10;99.90;;;;;;5010415;28;20038;-77
2023/02/28 08:39:35;;;;;;;1999.90;999.90;;;2.80;99.90;;;;;;5014933;28;20465;-80
2023/02/28 08:42:02;;;;;;;1999.90;999.90;;;4.90;99.90;;;;;;5008366;28;20030;-81
2023/02/28 08:44:27;;;;;;;1999.90;999.90;;;6.90;99.90;;;;;;5007776;28;20041;-73
2023/02/28 08:46:53;;;;;;;1999.90;999.90;;;8.50;99.90;;;;;;5009933;28;20049;-71
2023/02/28 08:49:19;;;;;;;1999.90;999.90;;;9.60;99.90;;;;;;5011510;28;20043;-79
2023/02/28 08:51:44;;;;;;;1999.90;999.90;;;10.50;99.90;;;;;;5007699;28;20033;-71
2023/02/28 08:54:12;;;;;;;1999.90;999.90;;;10.50;99.30;;;;;;5005145;28;20030;-79
2023/02/28 08:56:38;;;;;;;1999.90;999.90;;;10.60;98.10;;;;;;5010461;28;20392;-72
2023/02/28 08:59:04;;;;;;;1999.90;999.90;;;10.30;98.50;;;;;;5019129;28;20053;-72
2023/02/28 09:01:31;;;;;;;1999.90;999.90;;;10.60;97.40;;;;;;5012452;28;20065;-78
2023/02/28 09:03:57;;;;;;;1999.90;999.90;;;11.60;97.30;;;;;;5006247;28;20549;-79
2023/02/28 09:06:25;;;;;;;1999.90;999.90;;;11.20;97.30;;;;;;5011592;28;20026;-78
2023/02/28 09:08:51;;;;;;;1999.90;999.90;;;12.20;96.30;;;;;;5016618;28;20084;-79
2023/02/28 09:11:18;;;;;;;1999.90;999.90;;;11.50;96.90;;;;;;5016736;28;20034;-78
2023/02/28 09:13:45;;;;;;;1999.90;999.90;;;12.70;95.80;;;;;;5000171;28;20030;-72
2023/02/28 09:16:13;;;;;;;1999.90;999.90;;;13.80;94.60;;;;;;5004877;28;20029;-80
2023/02/28 09:18:40;;;;;;;1999.90;999.90;;;13.70;93.90;;;;;;5014159;28;20046;-78
2023/02/28 09:21:15;;;;;;;1999.90;999.90;;;13.90;93.70;;;;;;5009999;28;20042;-78
2023/02/28 09:23:42;;;;;;;1999.90;999.90;;;14.40;93.50;;;;;;5008100;28;20038;-72
2023/02/28 09:26:12;;;;;;;1999.90;999.90;;;13.50;92.80;;;;;;5001977;28;20032;-73
2023/02/28 09:28:38;;;;;;;1999.90;999.90;;;14.30;92.90;;;;;;5001272;28;20481;-79
2023/02/28 09:31:04;;;;;;;1999.90;999.90;;;13.40;92.90;;;;;;5008323;28;20037;-78
2023/02/28 09:33:30;;;;;;;1999.90;999.90;;;12.20;93.40;;;;;;5007528;28;20100;-79
2023/02/28 09:36:02;;;;;;;1999.90;999.90;;;13.40;94.00;;;;;;5000494;28;20042;-72
2023/02/28 09:38:28;;;;;;;1999.90;999.90;;;14.20;92.70;;;;;;5009565;28;20030;-75
2023/02/28 09:40:57;;;;;;;1999.90;999.90;;;13.50;91.70;;;;;;5009308;28;20061;-79
2023/02/28 09:43:51;;;;;;;1999.90;999.90;;;13.10;92.90;;;;;;5008484;28;20037;-79
2023/02/28 09:46:36;;;;;;;1999.90;999.90;;;12.90;92.50;;;;;;5009057;28;20509;-72
2023/02/28 09:49:07;;;;;;;1999.90;999.90;;;12.80;91.90;;;;;;5007879;28;20165;-73
2023/02/28 09:51:43;;;;;;;1999.90;999.90;;;12.50;92.50;;;;;;5002890;28;20484;-73
2023/02/28 09:54:30;;;;;;;1999.90;999.90;;;12.00;93.70;;;;;;5013692;28;20032;-72
2023/02/28 09:57:13;;;;;;;1999.90;999.90;;;9.30;94.70;;;;;;5008292;28;20025;-72
2023/02/28 10:00:10;;;;;;;1999.90;999.90;;;8.00;97.70;;;;;;5006569;28;20108;-72
2023/02/28 10:03:03;;;;;;;1999.90;999.90;;;7.20;99.40;;;;;;5004517;28;20026;-71
2023/02/28 10:05:36;;;;;;;1999.90;999.90;;;6.50;99.90;;;;;;5000209;28;20380;-71
2023/02/28 10:08:20;;;;;;;;;;;6.40;99.90;;;;;;5006805;28;20045;-71
2023/02/28 10:10:55;;;;;;;1999.90;999.90;;;6.80;99.90;;;;;;5003482;28;19960;-78
2023/02/28 10:13:38;;;;;;;1999.90;999.90;;;6.10;99.90;;;;;;5000506;28;20034;-78
2023/02/28 10:16:10;;;;;;;;;;;6.10;99.90;;;;;;5006824;28;20052;-79
2023/02/28 10:18:45;;;;;;;1999.90;999.90;;;5.90;99.90;;;;;;5010756;28;19916;-70
2023/02/28 10:21:39;;;;;;;1999.90;999.90;;;5.60;99.90;;;;;;5008277;28;20037;-78
2023/02/28 10:24:22;;;;;;;1999.90;999.90;;;5.70;99.90;;;;;;5006104;28;20056;-75
2023/02/28 10:26:48;;;;;;;1999.90;999.90;;;5.80;99.90;;;;;;5011708;28;20072;-78
2023/02/28 10:29:15;;;;;;;1999.90;999.90;;;5.80;99.90;;;;;;5008549;28;20449;-71
2023/02/28 10:31:40;;;;;;;1999.90;999.90;;;6.00;99.90;;;;;;5007132;28;20101;-78
2023/02/28 10:34:07;;;;;;;1999.90;999.90;;;6.00;99.90;;;;;;5010104;28;20393;-79
2023/02/28 10:36:33;;;;;;;1999.90;999.90;;;6.20;99.90;;;;;;5012856;28;20072;-77
2023/02/28 10:38:59;;;;;;;1999.90;999.90;;;6.30;99.80;;;;;;5008807;28;20038;-79
2023/02/28 10:41:28;;;;;;;1999.90;999.90;;;6.20;99.90;;;;;;5008816;28;20022;-71
2023/02/28 10:44:13;;;;;;;1999.90;999.90;;;6.10;99.50;;;;;;5001647;28;20030;-71
2023/02/28 10:46:41;;;;;;;1999.90;999.90;;;6.10;98.90;;;;;;5008263;28;20045;-70
2023/02/28 10:49:17;;;;;;;1999.90;999.90;;;6.10;99.20;;;;;;5038345;28;20042;-77
2023/02/28 10:51:43;;;;;;;1999.90;999.90;;;6.10;99.50;;;;;;5002747;28;20442;-78
2023/02/28 10:54:18;;;;;;;1999.90;999.90;;;6.10;99.80;;;;;;5006301;28;20030;-70
2023/02/28 10:56:44;;;;;;;1999.90;999.90;;;5.90;99.70;;;;;;5010621;28;20030;-70
2023/02/28 10:59:30;;;;;;;1999.90;999.90;;;6.20;99.80;;;;;;5004670;28;20087;-77
2023/02/28 11:01:56;;;;;;;1999.90;999.90;;;6.50;99.10;;;;;;5003114;28;20121;-75
2023/02/28 11:04:22;;;;;;;1999.90;999.90;;;6.70;99.40;;;;;;5008405;28;20493;-77
2023/02/28 11:07:00;;;;;;;1999.90;999.90;;;6.80;98.40;;;;;;5014486;28;20117;-70
2023/02/28 11:09:40;;;;;;;1999.90;999.90;;;6.40;98.00;;;;;;5007317;28;20026;-70
2023/02/28 11:12:19;;;;;;;1999.90;999.90;;;6.50;98.20;;;;;;5001947;28;20493;-77
2023/02/28 11:14:54;;;;;;;1999.90;999.90;;;6.30;98.40;;;;;;5002452;28;20029;-77
2023/02/28 11:17:29;;;;;;;1999.90;999.90;;;6.50;97.60;;;;;;5005834;28;20026;-78
2023/02/28 11:20:07;;;;;;;1999.90;999.90;;;6.30;98.20;;;;;;5001705;28;20053;-70
2023/02/28 11:22:38;;;;;;;1999.90;999.90;;;6.40;99.40;;;;;;4999667;28;20493;-77
2023/02/28 11:25:22;;;;;;;1999.90;999.90;;;6.60;97.30;;;;;;4994378;28;20143;-77
2023/02/28 11:28:00;;;;;;;1999.90;999.90;;;6.60;98.40;;;;;;5004640;28;20156;-70
2023/02/28 11:30:27;;;;;;;1999.90;999.90;;;6.40;97.90;;;;;;5004602;28;20022;-77
2023/02/28 11:32:53;;;;;;;1999.90;999.90;;;6.60;98.50;;;;;;5003103;28;20044;-70
2023/02/28 11:35:34;;;;;;;1999.90;999.90;;;6.90;98.30;;;;;;5003232;28;20026;-70
2023/02/28 11:38:00;;;;;;;1999.90;999.90;;;7.30;97.40;;;;;;5007451;28;20445;-79
2023/02/28 11:40:43;;;;;;;1999.90;999.90;;;7.40;98.20;;;;;;5003715;28;20038;-77
2023/02/28 11:43:29;;;;;;;1999.90;999.90;;;7.00;97.80;;;;;;5000764;28;20034;-78
2023/02/28 11:46:23;;;;;;;1999.90;999.90;;;6.90;98.20;;;;;;5033492;28;20056;-70
2023/02/28 11:49:20;;;;;;;1999.90;999.90;;;7.00;98.20;;;;;;5002112;28;20496;-70
2023/02/28 11:51:55;;;;;;;1999.90;999.90;;;6.90;97.20;;;;;;5000855;28;20536;-77
2023/02/28 11:54:33;;;;;;;1999.90;999.90;;;6.80;97.50;;;;;;5004937;28;20038;-78
2023/02/28 11:57:14;;;;;;;1999.90;999.90;;;7.10;97.60;;;;;;5017008;28;20034;-77
2023/02/28 12:00:06;;;;;;;1999.90;999.90;;;6.80;97.50;;;;;;5007453;28;20515;-76
2023/02/28 12:02:51;;;;;;;1999.90;999.90;;;6.70;97.10;;;;;;5006896;28;20049;-77
2023/02/28 12:05:36;;;;;;;1999.90;999.90;;;6.90;97.20;;;;;;5008971;28;20053;-79
2023/02/28 12:08:10;;;;;;;1999.90;999.90;;;7.10;96.90;;;;;;5009428;28;20076;-77
2023/02/28 12:10:59;;;;;;;1999.90;999.90;;;7.20;97.30;;;;;;5010007;28;20062;-78
2023/02/28 12:13:38;;;;;;;1999.90;999.90;;;7.30;96.50;;;;;;5007536;28;20053;-70
2023/02/28 12:16:15;;;;;;;1999.90;999.90;;;7.50;97.80;;;;;;5009707;28;20076;-78
2023/02/28 12:19:13;;;;;;;1999.90;999.90;;;7.60;95.70;;;;;;5004344;28;20022;-77
2023/02/28 12:21:44;;;;;;;1999.90;999.90;;;7.50;96.60;;;;;;5010523;28;20412;-78